sensor_id;sensor_type;location;lat;lon;timestamp;P1;durP1;ratioP1;P2;durP2;ratioP2
37411;SDS011;23278;52.110;6.050;2023-06-22T00:02:00;1.85;;;0.98;;
37411;SDS011;23278;52.110;6.050;2023-06-22T00:04:26;1.95;;;1.10;;
37411;SDS011;23278;52.110;6.050;2023-06-22T00:06:52;1.85;;;1.00;;
37411;SDS011;23278;52.110;6.050;2023-06-22T00:09:18;1.20;;;0.88;;
37411;SDS011;23278;52.110;6.050;2023-06-22T00:11:44;1.55;;;1.00;;
37411;SDS011;23278;52.110;6.050;2023-06-22T00:14:10;1.92;;;0.93;;
37411;SDS011;23278;52.110;6.050;2023-06-22T00:16:36;3.65;;;1.25;;
37411;SDS011;23278;52.110;6.050;2023-06-22T00:19:02;1.45;;;1.17;;
37411;SDS011;23278;52.110;6.050;2023-06-22T00:21:29;2.25;;;1.30;;
37411;SDS011;23278;52.110;6.050;2023-06-22T00:23:55;2.65;;;1.40;;
37411;SDS011;23278;52.110;6.050;2023-06-22T00:26:22;1.90;;;1.20;;
37411;SDS011;23278;52.110;6.050;2023-06-22T00:28:48;3.20;;;1.67;;
37411;SDS011;23278;52.110;6.050;2023-06-22T00:31:14;1.92;;;1.52;;
37411;SDS011;23278;52.110;6.050;2023-06-22T00:33:40;2.75;;;1.48;;
37411;SDS011;23278;52.110;6.050;2023-06-22T00:36:06;1.70;;;1.50;;
37411;SDS011;23278;52.110;6.050;2023-06-22T00:38:38;2.40;;;1.40;;
37411;SDS011;23278;52.110;6.050;2023-06-22T00:41:07;2.28;;;1.30;;
37411;SDS011;23278;52.110;6.050;2023-06-22T00:43:34;4.65;;;1.65;;
37411;SDS011;23278;52.110;6.050;2023-06-22T00:46:02;2.15;;;1.67;;
37411;SDS011;23278;52.110;6.050;2023-06-22T00:48:28;2.85;;;1.60;;
37411;SDS011;23278;52.110;6.050;2023-06-22T00:50:54;2.28;;;1.45;;
37411;SDS011;23278;52.110;6.050;2023-06-22T00:53:22;2.47;;;1.23;;
37411;SDS011;23278;52.110;6.050;2023-06-22T00:55:48;1.70;;;1.33;;
37411;SDS011;23278;52.110;6.050;2023-06-22T00:58:17;1.80;;;1.60;;
37411;SDS011;23278;52.110;6.050;2023-06-22T01:00:47;2.90;;;2.03;;
37411;SDS011;23278;52.110;6.050;2023-06-22T01:03:13;2.58;;;1.60;;
37411;SDS011;23278;52.110;6.050;2023-06-22T01:05:41;2.60;;;2.38;;
37411;SDS011;23278;52.110;6.050;2023-06-22T01:18:30;2.60;;;2.30;;
37411;SDS011;23278;52.110;6.050;2023-06-22T01:21:00;3.60;;;1.95;;
37411;SDS011;23278;52.110;6.050;2023-06-22T01:28:51;2.13;;;1.70;;
37411;SDS011;23278;52.110;6.050;2023-06-22T01:31:20;2.03;;;1.75;;
37411;SDS011;23278;52.110;6.050;2023-06-22T01:33:50;2.35;;;1.58;;
37411;SDS011;23278;52.110;6.050;2023-06-22T01:36:19;2.83;;;2.00;;
37411;SDS011;23278;52.110;6.050;2023-06-22T01:38:47;3.58;;;2.30;;
37411;SDS011;23278;52.110;6.050;2023-06-22T01:41:15;2.38;;;1.50;;
37411;SDS011;23278;52.110;6.050;2023-06-22T01:43:43;2.72;;;1.85;;
37411;SDS011;23278;52.110;6.050;2023-06-22T01:46:15;2.22;;;1.92;;
37411;SDS011;23278;52.110;6.050;2023-06-22T01:48:45;3.22;;;2.20;;
37411;SDS011;23278;52.110;6.050;2023-06-22T01:51:11;3.70;;;2.28;;
37411;SDS011;23278;52.110;6.050;2023-06-22T01:53:38;2.75;;;1.88;;
37411;SDS011;23278;52.110;6.050;2023-06-22T01:56:04;2.78;;;2.40;;
37411;SDS011;23278;52.110;6.050;2023-06-22T01:58:31;2.85;;;1.90;;
37411;SDS011;23278;52.110;6.050;2023-06-22T02:01:12;2.38;;;2.00;;
37411;SDS011;23278;52.110;6.050;2023-06-22T02:03:44;3.22;;;2.00;;
37411;SDS011;23278;52.110;6.050;2023-06-22T02:06:31;2.60;;;2.35;;
37411;SDS011;23278;52.110;6.050;2023-06-22T02:09:02;3.22;;;2.15;;
37411;SDS011;23278;52.110;6.050;2023-06-22T02:11:34;2.70;;;1.83;;
37411;SDS011;23278;52.110;6.050;2023-06-22T02:14:02;3.00;;;2.67;;
37411;SDS011;23278;52.110;6.050;2023-06-22T02:16:30;2.67;;;2.47;;
37411;SDS011;23278;52.110;6.050;2023-06-22T02:18:57;2.28;;;2.03;;
37411;SDS011;23278;52.110;6.050;2023-06-22T02:21:33;2.95;;;1.98;;
37411;SDS011;23278;52.110;6.050;2023-06-22T02:23:59;2.45;;;1.77;;
37411;SDS011;23278;52.110;6.050;2023-06-22T02:26:28;7.30;;;2.65;;
37411;SDS011;23278;52.110;6.050;2023-06-22T02:28:55;4.03;;;3.20;;
37411;SDS011;23278;52.110;6.050;2023-06-22T02:31:21;2.80;;;2.13;;
37411;SDS011;23278;52.110;6.050;2023-06-22T02:33:47;2.60;;;2.13;;
37411;SDS011;23278;52.110;6.050;2023-06-22T02:36:13;5.45;;;2.88;;
37411;SDS011;23278;52.110;6.050;2023-06-22T02:38:43;3.20;;;2.90;;
37411;SDS011;23278;52.110;6.050;2023-06-22T02:41:14;3.50;;;2.20;;
37411;SDS011;23278;52.110;6.050;2023-06-22T02:43:46;5.78;;;2.85;;
37411;SDS011;23278;52.110;6.050;2023-06-22T02:46:13;3.30;;;3.00;;
37411;SDS011;23278;52.110;6.050;2023-06-22T02:48:40;3.53;;;2.85;;
37411;SDS011;23278;52.110;6.050;2023-06-22T02:51:07;3.63;;;3.22;;
37411;SDS011;23278;52.110;6.050;2023-06-22T02:53:35;4.35;;;3.63;;
37411;SDS011;23278;52.110;6.050;2023-06-22T02:56:04;3.05;;;2.75;;
37411;SDS011;23278;52.110;6.050;2023-06-22T03:01:06;3.00;;;2.63;;
37411;SDS011;23278;52.110;6.050;2023-06-22T03:03:33;2.75;;;2.38;;
37411;SDS011;23278;52.110;6.050;2023-06-22T03:05:59;4.93;;;2.92;;
37411;SDS011;23278;52.110;6.050;2023-06-22T03:08:28;2.80;;;2.28;;
37411;SDS011;23278;52.110;6.050;2023-06-22T03:10:55;3.60;;;3.10;;
37411;SDS011;23278;52.110;6.050;2023-06-22T03:13:21;3.67;;;2.38;;
37411;SDS011;23278;52.110;6.050;2023-06-22T03:15:47;2.75;;;2.25;;
37411;SDS011;23278;52.110;6.050;2023-06-22T03:18:13;3.58;;;3.20;;
37411;SDS011;23278;52.110;6.050;2023-06-22T03:20:39;4.82;;;2.70;;
37411;SDS011;23278;52.110;6.050;2023-06-22T03:23:08;2.78;;;2.47;;
37411;SDS011;23278;52.110;6.050;2023-06-22T03:25:34;6.43;;;3.40;;
37411;SDS011;23278;52.110;6.050;2023-06-22T03:28:02;3.30;;;2.50;;
37411;SDS011;23278;52.110;6.050;2023-06-22T03:30:28;5.68;;;2.60;;
37411;SDS011;23278;52.110;6.050;2023-06-22T03:32:54;3.17;;;2.88;;
37411;SDS011;23278;52.110;6.050;2023-06-22T03:35:19;3.88;;;3.47;;
37411;SDS011;23278;52.110;6.050;2023-06-22T03:37:47;3.47;;;2.83;;
37411;SDS011;23278;52.110;6.050;2023-06-22T03:40:13;3.15;;;2.50;;
37411;SDS011;23278;52.110;6.050;2023-06-22T03:42:39;3.20;;;2.90;;
37411;SDS011;23278;52.110;6.050;2023-06-22T03:45:05;4.78;;;3.10;;
37411;SDS011;23278;52.110;6.050;2023-06-22T03:47:33;4.38;;;2.72;;
37411;SDS011;23278;52.110;6.050;2023-06-22T03:49:59;3.55;;;3.20;;
37411;SDS011;23278;52.110;6.050;2023-06-22T03:52:25;3.60;;;2.80;;
37411;SDS011;23278;52.110;6.050;2023-06-22T03:54:51;3.80;;;3.50;;
37411;SDS011;23278;52.110;6.050;2023-06-22T03:57:17;4.35;;;3.45;;
37411;SDS011;23278;52.110;6.050;2023-06-22T03:59:43;4.43;;;3.58;;
37411;SDS011;23278;52.110;6.050;2023-06-22T04:02:08;5.22;;;4.70;;
37411;SDS011;23278;52.110;6.050;2023-06-22T04:04:34;5.00;;;4.45;;
37411;SDS011;23278;52.110;6.050;2023-06-22T04:07:00;5.72;;;4.50;;
37411;SDS011;23278;52.110;6.050;2023-06-22T04:09:26;6.50;;;4.80;;
37411;SDS011;23278;52.110;6.050;2023-06-22T04:11:52;5.97;;;5.00;;
37411;SDS011;23278;52.110;6.050;2023-06-22T04:14:18;6.25;;;5.60;;
37411;SDS011;23278;52.110;6.050;2023-06-22T04:16:44;6.45;;;4.07;;
37411;SDS011;23278;52.110;6.050;2023-06-22T04:19:10;5.45;;;5.03;;
37411;SDS011;23278;52.110;6.050;2023-06-22T04:21:41;5.63;;;5.00;;
37411;SDS011;23278;52.110;6.050;2023-06-22T04:24:07;5.57;;;5.07;;
37411;SDS011;23278;52.110;6.050;2023-06-22T04:26:33;5.60;;;5.10;;
37411;SDS011;23278;52.110;6.050;2023-06-22T04:29:05;5.75;;;4.90;;
37411;SDS011;23278;52.110;6.050;2023-06-22T04:31:31;6.88;;;5.22;;
37411;SDS011;23278;52.110;6.050;2023-06-22T04:34:02;6.28;;;5.72;;
37411;SDS011;23278;52.110;6.050;2023-06-22T04:36:33;6.00;;;5.43;;
37411;SDS011;23278;52.110;6.050;2023-06-22T04:39:09;6.22;;;5.63;;
37411;SDS011;23278;52.110;6.050;2023-06-22T04:41:39;5.50;;;5.00;;
37411;SDS011;23278;52.110;6.050;2023-06-22T04:44:09;6.32;;;5.72;;
37411;SDS011;23278;52.110;6.050;2023-06-22T04:46:36;8.98;;;6.47;;
37411;SDS011;23278;52.110;6.050;2023-06-22T04:49:06;6.20;;;5.60;;
37411;SDS011;23278;52.110;6.050;2023-06-22T04:51:39;5.43;;;4.63;;
37411;SDS011;23278;52.110;6.050;2023-06-22T04:54:06;5.75;;;4.82;;
37411;SDS011;23278;52.110;6.050;2023-06-22T04:56:33;6.45;;;5.93;;
37411;SDS011;23278;52.110;6.050;2023-06-22T04:58:59;7.65;;;5.95;;
37411;SDS011;23278;52.110;6.050;2023-06-22T05:01:25;7.50;;;5.82;;
37411;SDS011;23278;52.110;6.050;2023-06-22T05:03:51;7.75;;;7.05;;
37411;SDS011;23278;52.110;6.050;2023-06-22T05:06:27;7.85;;;7.10;;
37411;SDS011;23278;52.110;6.050;2023-06-22T05:08:54;10.40;;;9.05;;
37411;SDS011;23278;52.110;6.050;2023-06-22T05:11:24;9.20;;;8.30;;
37411;SDS011;23278;52.110;6.050;2023-06-22T05:13:54;7.25;;;6.38;;
37411;SDS011;23278;52.110;6.050;2023-06-22T05:16:20;8.60;;;7.80;;
37411;SDS011;23278;52.110;6.050;2023-06-22T05:18:56;8.25;;;7.40;;
37411;SDS011;23278;52.110;6.050;2023-06-22T05:21:23;11.27;;;7.20;;
37411;SDS011;23278;52.110;6.050;2023-06-22T05:23:51;10.10;;;9.02;;
37411;SDS011;23278;52.110;6.050;2023-06-22T05:26:21;9.75;;;8.75;;
37411;SDS011;23278;52.110;6.050;2023-06-22T05:28:47;9.00;;;8.15;;
37411;SDS011;23278;52.110;6.050;2023-06-22T05:31:13;8.43;;;7.63;;
37411;SDS011;23278;52.110;6.050;2023-06-22T05:33:40;10.40;;;9.50;;
37411;SDS011;23278;52.110;6.050;2023-06-22T05:36:09;9.50;;;8.52;;
37411;SDS011;23278;52.110;6.050;2023-06-22T05:38:36;12.90;;;11.60;;
37411;SDS011;23278;52.110;6.050;2023-06-22T05:41:02;12.40;;;10.80;;
37411;SDS011;23278;52.110;6.050;2023-06-22T05:43:28;12.40;;;10.02;;
37411;SDS011;23278;52.110;6.050;2023-06-22T05:45:54;10.05;;;9.15;;
37411;SDS011;23278;52.110;6.050;2023-06-22T05:48:20;10.50;;;8.70;;
37411;SDS011;23278;52.110;6.050;2023-06-22T05:50:46;12.18;;;10.88;;
37411;SDS011;23278;52.110;6.050;2023-06-22T05:53:12;12.57;;;11.30;;
37411;SDS011;23278;52.110;6.050;2023-06-22T05:55:38;11.63;;;10.55;;
37411;SDS011;23278;52.110;6.050;2023-06-22T05:58:04;11.27;;;10.18;;
37411;SDS011;23278;52.110;6.050;2023-06-22T06:00:30;13.88;;;12.43;;
37411;SDS011;23278;52.110;6.050;2023-06-22T06:02:56;12.43;;;11.13;;
37411;SDS011;23278;52.110;6.050;2023-06-22T06:07:59;8.20;;;7.50;;
37411;SDS011;23278;52.110;6.050;2023-06-22T06:10:25;11.40;;;10.25;;
37411;SDS011;23278;52.110;6.050;2023-06-22T06:12:52;9.13;;;8.15;;
37411;SDS011;23278;52.110;6.050;2023-06-22T06:15:17;10.50;;;9.55;;
37411;SDS011;23278;52.110;6.050;2023-06-22T06:17:50;12.38;;;11.02;;
37411;SDS011;23278;52.110;6.050;2023-06-22T06:20:21;12.13;;;10.85;;
37411;SDS011;23278;52.110;6.050;2023-06-22T06:22:49;10.82;;;8.77;;
37411;SDS011;23278;52.110;6.050;2023-06-22T06:25:15;15.45;;;13.85;;
37411;SDS011;23278;52.110;6.050;2023-06-22T06:27:42;13.43;;;12.00;;
37411;SDS011;23278;52.110;6.050;2023-06-22T06:30:09;13.48;;;12.07;;
37411;SDS011;23278;52.110;6.050;2023-06-22T06:32:36;13.02;;;11.48;;
37411;SDS011;23278;52.110;6.050;2023-06-22T06:35:06;11.82;;;10.75;;
37411;SDS011;23278;52.110;6.050;2023-06-22T06:37:36;10.05;;;9.07;;
37411;SDS011;23278;52.110;6.050;2023-06-22T06:40:03;13.10;;;11.75;;
37411;SDS011;23278;52.110;6.050;2023-06-22T06:42:37;12.73;;;11.43;;
37411;SDS011;23278;52.110;6.050;2023-06-22T06:45:06;10.55;;;9.55;;
37411;SDS011;23278;52.110;6.050;2023-06-22T06:47:42;14.65;;;12.82;;
37411;SDS011;23278;52.110;6.050;2023-06-22T06:50:08;10.07;;;8.93;;
37411;SDS011;23278;52.110;6.050;2023-06-22T06:52:35;14.70;;;10.95;;
37411;SDS011;23278;52.110;6.050;2023-06-22T06:55:02;11.15;;;8.75;;
37411;SDS011;23278;52.110;6.050;2023-06-22T06:57:50;12.35;;;10.88;;
37411;SDS011;23278;52.110;6.050;2023-06-22T07:00:17;8.85;;;7.95;;
37411;SDS011;23278;52.110;6.050;2023-06-22T07:02:44;9.90;;;8.85;;
37411;SDS011;23278;52.110;6.050;2023-06-22T07:05:11;9.40;;;8.48;;
37411;SDS011;23278;52.110;6.050;2023-06-22T07:07:38;12.57;;;9.50;;
37411;SDS011;23278;52.110;6.050;2023-06-22T07:10:07;11.90;;;10.73;;
37411;SDS011;23278;52.110;6.050;2023-06-22T07:12:33;9.88;;;8.48;;
37411;SDS011;23278;52.110;6.050;2023-06-22T07:15:05;7.97;;;7.18;;
37411;SDS011;23278;52.110;6.050;2023-06-22T07:17:37;8.75;;;7.88;;
37411;SDS011;23278;52.110;6.050;2023-06-22T07:20:04;6.68;;;5.97;;
37411;SDS011;23278;52.110;6.050;2023-06-22T07:22:36;6.38;;;5.30;;
37411;SDS011;23278;52.110;6.050;2023-06-22T07:25:02;5.97;;;5.38;;
37411;SDS011;23278;52.110;6.050;2023-06-22T07:27:35;8.50;;;7.15;;
37411;SDS011;23278;52.110;6.050;2023-06-22T07:30:03;9.70;;;8.35;;
37411;SDS011;23278;52.110;6.050;2023-06-22T07:32:36;8.57;;;6.82;;
37411;SDS011;23278;52.110;6.050;2023-06-22T07:35:02;7.07;;;5.90;;
37411;SDS011;23278;52.110;6.050;2023-06-22T07:37:29;9.00;;;7.70;;
37411;SDS011;23278;52.110;6.050;2023-06-22T07:39:55;7.15;;;6.43;;
37411;SDS011;23278;52.110;6.050;2023-06-22T07:42:24;5.88;;;5.20;;
37411;SDS011;23278;52.110;6.050;2023-06-22T07:44:50;6.10;;;5.30;;
37411;SDS011;23278;52.110;6.050;2023-06-22T07:47:16;4.65;;;3.85;;
37411;SDS011;23278;52.110;6.050;2023-06-22T07:49:46;4.45;;;4.05;;
37411;SDS011;23278;52.110;6.050;2023-06-22T07:52:12;6.22;;;4.75;;
37411;SDS011;23278;52.110;6.050;2023-06-22T07:54:38;5.68;;;4.45;;
37411;SDS011;23278;52.110;6.050;2023-06-22T07:57:05;4.60;;;4.20;;
37411;SDS011;23278;52.110;6.050;2023-06-22T07:59:31;5.40;;;4.90;;
37411;SDS011;23278;52.110;6.050;2023-06-22T08:01:57;4.85;;;4.32;;
37411;SDS011;23278;52.110;6.050;2023-06-22T08:04:23;6.55;;;4.47;;
37411;SDS011;23278;52.110;6.050;2023-06-22T08:06:49;4.65;;;4.20;;
37411;SDS011;23278;52.110;6.050;2023-06-22T08:09:15;3.25;;;2.53;;
37411;SDS011;23278;52.110;6.050;2023-06-22T08:11:40;5.93;;;5.32;;
37411;SDS011;23278;52.110;6.050;2023-06-22T08:14:06;5.47;;;4.78;;
37411;SDS011;23278;52.110;6.050;2023-06-22T08:16:32;6.57;;;3.60;;
37411;SDS011;23278;52.110;6.050;2023-06-22T08:18:58;5.22;;;4.00;;
37411;SDS011;23278;52.110;6.050;2023-06-22T08:21:24;5.10;;;3.75;;
37411;SDS011;23278;52.110;6.050;2023-06-22T08:23:50;5.22;;;3.65;;
37411;SDS011;23278;52.110;6.050;2023-06-22T08:26:16;4.60;;;4.00;;
37411;SDS011;23278;52.110;6.050;2023-06-22T08:28:42;3.95;;;3.55;;
37411;SDS011;23278;52.110;6.050;2023-06-22T08:31:08;3.50;;;3.20;;
37411;SDS011;23278;52.110;6.050;2023-06-22T08:33:34;5.28;;;4.03;;
37411;SDS011;23278;52.110;6.050;2023-06-22T08:35:59;3.58;;;2.88;;
37411;SDS011;23278;52.110;6.050;2023-06-22T08:38:26;3.88;;;3.05;;
37411;SDS011;23278;52.110;6.050;2023-06-22T08:40:52;3.50;;;2.38;;
37411;SDS011;23278;52.110;6.050;2023-06-22T08:43:18;4.57;;;3.83;;
37411;SDS011;23278;52.110;6.050;2023-06-22T08:45:44;4.55;;;2.80;;
37411;SDS011;23278;52.110;6.050;2023-06-22T08:48:13;5.00;;;3.75;;
37411;SDS011;23278;52.110;6.050;2023-06-22T08:50:39;4.00;;;3.55;;
37411;SDS011;23278;52.110;6.050;2023-06-22T08:53:06;3.45;;;2.75;;
37411;SDS011;23278;52.110;6.050;2023-06-22T08:55:33;3.90;;;3.08;;
37411;SDS011;23278;52.110;6.050;2023-06-22T08:57:59;4.70;;;3.05;;
37411;SDS011;23278;52.110;6.050;2023-06-22T09:00:25;3.90;;;2.95;;
37411;SDS011;23278;52.110;6.050;2023-06-22T09:02:51;3.88;;;2.03;;
37411;SDS011;23278;52.110;6.050;2023-06-22T09:05:16;3.65;;;3.00;;
37411;SDS011;23278;52.110;6.050;2023-06-22T09:07:43;3.70;;;3.33;;
37411;SDS011;23278;52.110;6.050;2023-06-22T09:10:09;2.95;;;2.63;;
37411;SDS011;23278;52.110;6.050;2023-06-22T09:12:35;3.75;;;3.38;;
37411;SDS011;23278;52.110;6.050;2023-06-22T09:15:03;4.22;;;2.42;;
37411;SDS011;23278;52.110;6.050;2023-06-22T09:17:30;2.55;;;1.80;;
37411;SDS011;23278;52.110;6.050;2023-06-22T09:19:56;6.63;;;3.17;;
37411;SDS011;23278;52.110;6.050;2023-06-22T09:22:22;3.00;;;2.70;;
37411;SDS011;23278;52.110;6.050;2023-06-22T09:24:50;5.40;;;3.28;;
37411;SDS011;23278;52.110;6.050;2023-06-22T09:27:16;3.33;;;2.53;;
37411;SDS011;23278;52.110;6.050;2023-06-22T09:29:42;3.92;;;2.55;;
37411;SDS011;23278;52.110;6.050;2023-06-22T09:32:07;2.17;;;1.50;;
37411;SDS011;23278;52.110;6.050;2023-06-22T09:34:33;6.40;;;3.65;;
37411;SDS011;23278;52.110;6.050;2023-06-22T09:36:59;3.42;;;1.90;;
37411;SDS011;23278;52.110;6.050;2023-06-22T09:39:28;3.70;;;1.80;;
37411;SDS011;23278;52.110;6.050;2023-06-22T09:41:54;5.13;;;2.25;;
37411;SDS011;23278;52.110;6.050;2023-06-22T09:44:20;2.88;;;2.05;;
37411;SDS011;23278;52.110;6.050;2023-06-22T09:46:46;4.72;;;3.30;;
37411;SDS011;23278;52.110;6.050;2023-06-22T09:49:12;2.53;;;2.05;;
37411;SDS011;23278;52.110;6.050;2023-06-22T09:51:37;3.13;;;2.58;;
37411;SDS011;23278;52.110;6.050;2023-06-22T09:54:03;3.20;;;1.70;;
37411;SDS011;23278;52.110;6.050;2023-06-22T09:56:29;4.47;;;2.50;;
37411;SDS011;23278;52.110;6.050;2023-06-22T09:58:55;2.53;;;2.08;;
37411;SDS011;23278;52.110;6.050;2023-06-22T10:01:21;5.13;;;3.08;;
37411;SDS011;23278;52.110;6.050;2023-06-22T10:03:48;2.60;;;2.15;;
37411;SDS011;23278;52.110;6.050;2023-06-22T10:06:13;3.67;;;2.60;;
37411;SDS011;23278;52.110;6.050;2023-06-22T10:08:40;2.70;;;1.63;;
37411;SDS011;23278;52.110;6.050;2023-06-22T10:11:06;2.78;;;1.73;;
37411;SDS011;23278;52.110;6.050;2023-06-22T10:13:32;2.80;;;1.67;;
37411;SDS011;23278;52.110;6.050;2023-06-22T10:15:58;2.88;;;2.10;;
37411;SDS011;23278;52.110;6.050;2023-06-22T10:18:24;3.53;;;2.38;;
37411;SDS011;23278;52.110;6.050;2023-06-22T10:20:50;2.35;;;1.80;;
37411;SDS011;23278;52.110;6.050;2023-06-22T10:23:20;2.88;;;2.05;;
37411;SDS011;23278;52.110;6.050;2023-06-22T10:25:46;2.65;;;1.90;;
37411;SDS011;23278;52.110;6.050;2023-06-22T10:28:12;3.58;;;2.13;;
37411;SDS011;23278;52.110;6.050;2023-06-22T10:30:39;2.80;;;2.08;;
37411;SDS011;23278;52.110;6.050;2023-06-22T10:33:09;4.80;;;3.17;;
37411;SDS011;23278;52.110;6.050;2023-06-22T10:35:36;2.75;;;1.92;;
37411;SDS011;23278;52.110;6.050;2023-06-22T10:38:03;3.60;;;1.85;;
37411;SDS011;23278;52.110;6.050;2023-06-22T10:40:29;3.53;;;1.77;;
37411;SDS011;23278;52.110;6.050;2023-06-22T10:42:55;2.80;;;1.65;;
37411;SDS011;23278;52.110;6.050;2023-06-22T10:45:21;2.50;;;1.85;;
37411;SDS011;23278;52.110;6.050;2023-06-22T10:47:47;2.60;;;1.55;;
37411;SDS011;23278;52.110;6.050;2023-06-22T10:50:13;2.45;;;1.65;;
37411;SDS011;23278;52.110;6.050;2023-06-22T10:52:39;4.05;;;1.90;;
37411;SDS011;23278;52.110;6.050;2023-06-22T10:55:07;3.15;;;1.58;;
37411;SDS011;23278;52.110;6.050;2023-06-22T10:57:34;3.90;;;2.15;;
37411;SDS011;23278;52.110;6.050;2023-06-22T11:00:00;4.82;;;2.00;;
37411;SDS011;23278;52.110;6.050;2023-06-22T11:02:26;3.33;;;2.42;;
37411;SDS011;23278;52.110;6.050;2023-06-22T11:04:53;3.97;;;1.75;;
37411;SDS011;23278;52.110;6.050;2023-06-22T11:07:19;3.00;;;1.92;;
37411;SDS011;23278;52.110;6.050;2023-06-22T11:09:45;2.67;;;1.70;;
37411;SDS011;23278;52.110;6.050;2023-06-22T11:12:11;4.25;;;2.28;;
37411;SDS011;23278;52.110;6.050;2023-06-22T11:14:38;3.35;;;2.47;;
37411;SDS011;23278;52.110;6.050;2023-06-22T11:17:04;3.00;;;2.35;;
37411;SDS011;23278;52.110;6.050;2023-06-22T11:19:30;4.32;;;2.47;;
37411;SDS011;23278;52.110;6.050;2023-06-22T11:21:56;4.28;;;2.70;;
37411;SDS011;23278;52.110;6.050;2023-06-22T11:24:22;2.35;;;1.80;;
37411;SDS011;23278;52.110;6.050;2023-06-22T11:26:48;4.38;;;1.55;;
37411;SDS011;23278;52.110;6.050;2023-06-22T11:29:14;2.63;;;2.25;;
37411;SDS011;23278;52.110;6.050;2023-06-22T11:31:40;3.25;;;2.40;;
37411;SDS011;23278;52.110;6.050;2023-06-22T11:34:08;2.92;;;2.03;;
37411;SDS011;23278;52.110;6.050;2023-06-22T11:36:33;3.03;;;2.72;;
37411;SDS011;23278;52.110;6.050;2023-06-22T11:39:00;3.00;;;2.30;;
37411;SDS011;23278;52.110;6.050;2023-06-22T11:41:27;6.10;;;2.65;;
37411;SDS011;23278;52.110;6.050;2023-06-22T11:43:53;2.30;;;1.40;;
37411;SDS011;23278;52.110;6.050;2023-06-22T11:46:19;6.57;;;2.60;;
37411;SDS011;23278;52.110;6.050;2023-06-22T11:48:45;2.72;;;1.90;;
37411;SDS011;23278;52.110;6.050;2023-06-22T11:51:10;2.47;;;2.13;;
37411;SDS011;23278;52.110;6.050;2023-06-22T11:53:36;4.20;;;2.30;;
37411;SDS011;23278;52.110;6.050;2023-06-22T11:56:02;3.55;;;1.73;;
37411;SDS011;23278;52.110;6.050;2023-06-22T11:58:28;4.40;;;1.75;;
37411;SDS011;23278;52.110;6.050;2023-06-22T12:00:54;2.50;;;2.10;;
37411;SDS011;23278;52.110;6.050;2023-06-22T12:03:20;3.08;;;1.70;;
37411;SDS011;23278;52.110;6.050;2023-06-22T12:05:46;2.55;;;1.55;;
37411;SDS011;23278;52.110;6.050;2023-06-22T12:08:13;3.22;;;1.73;;
37411;SDS011;23278;52.110;6.050;2023-06-22T12:10:39;3.47;;;2.50;;
37411;SDS011;23278;52.110;6.050;2023-06-22T12:13:05;4.70;;;1.98;;
37411;SDS011;23278;52.110;6.050;2023-06-22T12:15:31;2.40;;;1.65;;
37411;SDS011;23278;52.110;6.050;2023-06-22T12:17:57;3.80;;;2.63;;
37411;SDS011;23278;52.110;6.050;2023-06-22T12:20:23;5.72;;;2.25;;
37411;SDS011;23278;52.110;6.050;2023-06-22T12:22:49;2.50;;;1.95;;
37411;SDS011;23278;52.110;6.050;2023-06-22T12:25:17;3.20;;;2.58;;
37411;SDS011;23278;52.110;6.050;2023-06-22T12:27:42;6.53;;;3.00;;
37411;SDS011;23278;52.110;6.050;2023-06-22T12:30:09;2.70;;;2.25;;
37411;SDS011;23278;52.110;6.050;2023-06-22T12:32:35;6.18;;;3.03;;
37411;SDS011;23278;52.110;6.050;2023-06-22T12:35:01;2.97;;;2.67;;
37411;SDS011;23278;52.110;6.050;2023-06-22T12:37:27;3.40;;;2.50;;
37411;SDS011;23278;52.110;6.050;2023-06-22T12:39:53;3.35;;;2.47;;
37411;SDS011;23278;52.110;6.050;2023-06-22T12:42:20;3.38;;;1.98;;
37411;SDS011;23278;52.110;6.050;2023-06-22T12:44:46;3.63;;;2.55;;
37411;SDS011;23278;52.110;6.050;2023-06-22T12:47:12;5.57;;;2.35;;
37411;SDS011;23278;52.110;6.050;2023-06-22T12:49:38;3.05;;;2.13;;
37411;SDS011;23278;52.110;6.050;2023-06-22T12:52:13;4.07;;;2.15;;
37411;SDS011;23278;52.110;6.050;2023-06-22T12:54:39;3.35;;;2.50;;
37411;SDS011;23278;52.110;6.050;2023-06-22T12:57:05;3.00;;;2.25;;
37411;SDS011;23278;52.110;6.050;2023-06-22T12:59:31;3.85;;;2.67;;
37411;SDS011;23278;52.110;6.050;2023-06-22T13:01:57;2.70;;;2.03;;
37411;SDS011;23278;52.110;6.050;2023-06-22T13:04:23;2.55;;;2.05;;
37411;SDS011;23278;52.110;6.050;2023-06-22T13:06:49;3.20;;;2.10;;
37411;SDS011;23278;52.110;6.050;2023-06-22T13:09:15;6.22;;;2.70;;
37411;SDS011;23278;52.110;6.050;2023-06-22T13:11:44;3.83;;;2.60;;
37411;SDS011;23278;52.110;6.050;2023-06-22T13:14:10;3.53;;;2.90;;
37411;SDS011;23278;52.110;6.050;2023-06-22T13:16:36;3.75;;;2.85;;
37411;SDS011;23278;52.110;6.050;2023-06-22T13:19:05;3.33;;;2.47;;
37411;SDS011;23278;52.110;6.050;2023-06-22T13:21:31;3.13;;;2.40;;
37411;SDS011;23278;52.110;6.050;2023-06-22T13:23:56;3.22;;;2.60;;
37411;SDS011;23278;52.110;6.050;2023-06-22T13:26:23;3.53;;;3.10;;
37411;SDS011;23278;52.110;6.050;2023-06-22T13:28:49;3.83;;;3.38;;
37411;SDS011;23278;52.110;6.050;2023-06-22T13:31:16;4.80;;;3.53;;
37411;SDS011;23278;52.110;6.050;2023-06-22T13:33:41;5.03;;;4.53;;
37411;SDS011;23278;52.110;6.050;2023-06-22T13:36:09;3.35;;;2.92;;
37411;SDS011;23278;52.110;6.050;2023-06-22T13:38:35;4.60;;;2.88;;
37411;SDS011;23278;52.110;6.050;2023-06-22T13:41:04;4.60;;;3.33;;
37411;SDS011;23278;52.110;6.050;2023-06-22T13:43:33;3.70;;;3.22;;
37411;SDS011;23278;52.110;6.050;2023-06-22T13:45:59;4.00;;;3.60;;
37411;SDS011;23278;52.110;6.050;2023-06-22T13:48:25;3.90;;;3.25;;
37411;SDS011;23278;52.110;6.050;2023-06-22T13:50:51;4.10;;;3.58;;
37411;SDS011;23278;52.110;6.050;2023-06-22T13:53:18;4.38;;;2.85;;
37411;SDS011;23278;52.110;6.050;2023-06-22T13:55:44;3.92;;;3.05;;
37411;SDS011;23278;52.110;6.050;2023-06-22T13:58:10;5.25;;;3.50;;
37411;SDS011;23278;52.110;6.050;2023-06-22T14:00:35;3.30;;;2.42;;
37411;SDS011;23278;52.110;6.050;2023-06-22T14:03:01;5.70;;;4.00;;
37411;SDS011;23278;52.110;6.050;2023-06-22T14:05:28;4.28;;;3.88;;
37411;SDS011;23278;52.110;6.050;2023-06-22T14:07:54;3.95;;;3.55;;
37411;SDS011;23278;52.110;6.050;2023-06-22T14:10:20;3.55;;;3.25;;
37411;SDS011;23278;52.110;6.050;2023-06-22T14:12:46;4.90;;;4.40;;
37411;SDS011;23278;52.110;6.050;2023-06-22T14:15:12;5.45;;;3.40;;
37411;SDS011;23278;52.110;6.050;2023-06-22T14:17:37;8.00;;;4.43;;
37411;SDS011;23278;52.110;6.050;2023-06-22T14:20:03;7.32;;;4.45;;
37411;SDS011;23278;52.110;6.050;2023-06-22T14:22:31;5.90;;;4.28;;
37411;SDS011;23278;52.110;6.050;2023-06-22T14:24:56;4.47;;;3.63;;
37411;SDS011;23278;52.110;6.050;2023-06-22T14:27:24;6.30;;;4.57;;
37411;SDS011;23278;52.110;6.050;2023-06-22T14:29:50;5.63;;;4.70;;
37411;SDS011;23278;52.110;6.050;2023-06-22T14:32:16;4.10;;;3.70;;
37411;SDS011;23278;52.110;6.050;2023-06-22T14:34:44;5.20;;;4.38;;
37411;SDS011;23278;52.110;6.050;2023-06-22T14:37:10;4.40;;;3.92;;
37411;SDS011;23278;52.110;6.050;2023-06-22T14:39:41;4.07;;;3.53;;
37411;SDS011;23278;52.110;6.050;2023-06-22T14:42:18;4.95;;;4.45;;
37411;SDS011;23278;52.110;6.050;2023-06-22T14:44:48;4.82;;;4.20;;
37411;SDS011;23278;52.110;6.050;2023-06-22T14:47:14;4.30;;;3.90;;
37411;SDS011;23278;52.110;6.050;2023-06-22T14:49:40;5.20;;;3.63;;
37411;SDS011;23278;52.110;6.050;2023-06-22T14:52:06;5.13;;;4.32;;
37411;SDS011;23278;52.110;6.050;2023-06-22T14:54:32;6.40;;;5.80;;
37411;SDS011;23278;52.110;6.050;2023-06-22T14:56:58;7.15;;;4.45;;
37411;SDS011;23278;52.110;6.050;2023-06-22T14:59:24;5.88;;;5.15;;
37411;SDS011;23278;52.110;6.050;2023-06-22T15:01:50;5.53;;;5.00;;
37411;SDS011;23278;52.110;6.050;2023-06-22T15:04:16;5.38;;;4.22;;
37411;SDS011;23278;52.110;6.050;2023-06-22T15:06:42;5.03;;;4.30;;